createdAt,value
2023-04-10T00:00:33.241Z,99297.72
2023-04-10T00:03:19.519Z,99295.78
2023-04-10T00:05:46.759Z,99297.41
2023-04-10T00:08:13.618Z,99294.63
2023-04-10T00:10:41.058Z,99287.56
2023-04-10T00:13:07.899Z,99289.19
2023-04-10T00:15:35.348Z,99290.84
2023-04-10T00:18:02.301Z,99290.72
2023-04-10T00:20:29.615Z,99297.59
2023-04-10T00:22:56.582Z,99293.97
2023-04-10T00:25:23.793Z,99291.25
2023-04-10T00:27:50.750Z,99293.75
2023-04-10T00:30:17.949Z,99302.50
2023-04-10T00:32:44.953Z,99321.78
2023-04-10T00:35:12.311Z,99336.69
2023-04-10T00:37:39.477Z,99327.03
2023-04-10T00:40:07.505Z,99321.69
2023-04-10T00:42:34.411Z,99311.06
2023-04-10T00:45:01.673Z,99293.44
2023-04-10T00:47:29.178Z,99285.50
2023-04-10T00:49:56.329Z,99287.13
2023-04-10T00:52:24.677Z,99279.19
2023-04-10T00:54:52.746Z,99281.75
2023-04-10T00:57:19.735Z,99286.06
2023-04-10T00:59:48.411Z,99287.75
2023-04-10T01:02:15.637Z,99289.44
2023-04-10T01:04:43.331Z,99285.94
2023-04-10T01:07:35.566Z,99283.31
2023-04-10T01:10:18.282Z,99279.75
2023-04-10T01:13:33.367Z,99276.31
2023-04-10T01:16:13.287Z,99280.78
2023-04-10T01:18:46.608Z,99272.91
2023-04-10T01:21:16.368Z,99266.78
2023-04-10T01:24:16.531Z,99269.47
2023-04-10T01:26:46.377Z,99267.69
2023-04-10T01:29:19.799Z,99276.50
2023-04-10T01:31:55.449Z,99262.47
2023-04-10T01:34:32.531Z,99258.97
2023-04-10T01:37:05.579Z,99268.56
2023-04-10T01:39:36.604Z,99266.78
2023-04-10T01:42:06.584Z,99274.63
2023-04-10T01:44:36.281Z,99273.69
2023-04-10T01:47:05.023Z,99262.28
2023-04-10T01:49:33.231Z,99269.19
2023-04-10T01:52:01.760Z,99267.41
2023-04-10T01:54:29.230Z,99266.47
2023-04-10T01:56:57.200Z,99270.78
2023-04-10T01:59:24.240Z,99266.41
2023-04-10T02:01:57.691Z,99265.63
2023-04-10T02:04:26.697Z,99264.69
2023-04-10T02:07:45.733Z,99268.22
2023-04-10T02:10:19.329Z,99261.16
2023-04-10T02:12:53.746Z,99263.72
2023-04-10T02:15:22.807Z,99266.31
2023-04-10T02:17:52.581Z,99271.47
2023-04-10T02:20:20.292Z,99270.59
2023-04-10T02:22:47.901Z,99267.88
2023-04-10T02:25:15.645Z,99260.94
2023-04-10T02:27:42.841Z,99256.53
2023-04-10T02:30:09.946Z,99258.31
2023-04-10T02:32:37.802Z,99249.56
2023-04-10T02:35:04.998Z,99252.22
2023-04-10T02:37:33.324Z,99247.84
2023-04-10T02:40:00.263Z,99241.69
2023-04-10T02:42:27.667Z,99239.28
2023-04-10T02:44:54.509Z,99234.03
2023-04-10T02:47:22.011Z,99238.38
2023-04-10T02:49:48.903Z,99245.41
2023-04-10T02:52:17.429Z,99230.56
2023-04-10T02:54:44.360Z,99227.88
2023-04-10T02:57:11.872Z,99227.94
2023-04-10T02:59:38.780Z,99227.88
2023-04-10T03:02:05.933Z,99226.13
2023-04-10T03:04:32.984Z,99225.25
2023-04-10T03:07:00.515Z,99221.78
2023-04-10T03:09:27.385Z,99219.94
2023-04-10T03:11:54.971Z,99222.56
2023-04-10T03:14:21.847Z,99221.72
2023-04-10T03:16:49.072Z,99217.28
2023-04-10T03:19:16.367Z,99208.59
2023-04-10T03:21:43.528Z,99212.91
2023-04-10T03:24:10.518Z,99213.78
2023-04-10T03:26:37.776Z,99213.72
2023-04-10T03:29:04.734Z,99221.56
2023-04-10T03:31:31.960Z,99226.69
2023-04-10T03:33:58.945Z,99226.66
2023-04-10T03:36:26.980Z,99231.88
2023-04-10T03:38:53.782Z,99232.69
2023-04-10T03:41:23.566Z,99232.63
2023-04-10T03:43:51.853Z,99232.59
2023-04-10T03:46:19.097Z,99231.78
2023-04-10T03:48:46.010Z,99231.78
2023-04-10T03:51:13.180Z,99237.00
2023-04-10T03:53:40.067Z,99234.31
2023-04-10T03:56:08.290Z,99234.38
2023-04-10T03:58:35.332Z,99229.19
2023-04-10T04:01:02.515Z,99227.44
2023-04-10T04:03:29.543Z,99233.59
2023-04-10T04:05:56.724Z,99232.78
2023-04-10T04:08:23.562Z,99232.72
2023-04-10T04:10:50.870Z,99233.59
2023-04-10T04:13:17.926Z,99231.88
2023-04-10T04:15:45.114Z,99237.06
2023-04-10T04:18:12.043Z,99239.69
2023-04-10T04:20:39.197Z,99237.84
2023-04-10T04:23:06.032Z,99243.09
2023-04-10T04:25:33.222Z,99234.41
2023-04-10T04:28:00.118Z,99235.19
2023-04-10T04:30:27.341Z,99241.25
2023-04-10T04:32:54.236Z,99247.34
2023-04-10T04:35:22.019Z,99245.59
2023-04-10T04:37:48.840Z,99250.81
2023-04-10T04:40:16.148Z,99241.97
2023-04-10T04:42:43.045Z,99244.56
2023-04-10T04:45:10.557Z,99242.69
2023-04-10T04:47:37.460Z,99248.75
2023-04-10T04:50:05.020Z,99248.75
2023-04-10T04:52:32.289Z,99254.78
2023-04-10T04:54:59.502Z,99256.38
2023-04-10T04:57:26.398Z,99258.84
2023-04-10T04:59:53.690Z,99263.81
2023-04-10T05:02:22.702Z,99259.19
2023-04-10T05:04:50.420Z,99265.88
2023-04-10T05:07:17.343Z,99265.59
2023-04-10T05:09:44.507Z,99271.34
2023-04-10T05:12:11.408Z,99279.69
2023-04-10T05:14:38.566Z,99267.94
2023-04-10T05:17:05.554Z,99273.69
2023-04-10T05:19:32.800Z,99275.88
2023-04-10T05:21:59.649Z,99277.19
2023-04-10T05:24:26.794Z,99279.47
2023-04-10T05:26:53.681Z,99278.31
2023-04-10T05:29:20.876Z,99280.59
2023-04-10T05:31:47.764Z,99276.66
2023-04-10T05:34:14.907Z,99280.72
2023-04-10T05:36:41.811Z,99285.63
2023-04-10T05:39:09.069Z,99278.22
2023-04-10T05:41:36.167Z,99278.03
2023-04-10T05:44:03.387Z,99272.78
2023-04-10T05:46:30.341Z,99271.69
2023-04-10T05:48:58.423Z,99275.19
2023-04-10T05:51:26.292Z,99268.09
2023-04-10T05:53:53.432Z,99278.56
2023-04-10T05:56:21.214Z,99277.59
2023-04-10T05:58:48.421Z,99271.75
2023-04-10T06:01:15.267Z,99275.28
2023-04-10T06:03:42.832Z,99276.72
2023-04-10T06:06:09.864Z,99280.88
2023-04-10T06:08:37.046Z,99281.81
2023-04-10T06:11:04.030Z,99278.44
2023-04-10T06:13:32.506Z,99287.78
2023-04-10T06:15:59.453Z,99280.41
2023-04-10T06:18:26.819Z,99284.22
2023-04-10T06:20:54.038Z,99280.16
2023-04-10T06:23:21.307Z,99278.69
2023-04-10T06:25:48.710Z,99280.97
2023-04-10T06:28:16.089Z,99278.81
2023-04-10T06:30:42.937Z,99284.91
2023-04-10T06:33:10.996Z,99286.31
2023-04-10T06:35:38.071Z,99280.63
2023-04-10T06:38:05.410Z,99285.59
2023-04-10T06:40:34.206Z,99283.06
2023-04-10T06:43:01.881Z,99289.41
2023-04-10T06:45:28.739Z,99287.78
2023-04-10T06:47:56.338Z,99293.28
2023-04-10T06:50:23.230Z,99295.78
2023-04-10T06:52:50.503Z,99300.63
2023-04-10T06:55:17.491Z,99300.91
2023-04-10T06:57:45.687Z,99295.47
2023-04-10T07:00:13.189Z,99303.19
2023-04-10T07:02:40.708Z,99314.75
2023-04-10T07:05:08.633Z,99306.13
2023-04-10T07:07:35.996Z,99304.09
2023-04-10T07:10:03.396Z,99307.78
2023-04-10T07:12:34.010Z,99303.16
2023-04-10T07:15:01.312Z,99290.94
2023-04-10T07:17:28.622Z,99301.28
2023-04-10T07:19:55.636Z,99305.22
2023-04-10T07:22:22.810Z,99293.19
2023-04-10T07:24:49.786Z,99292.72
2023-04-10T07:27:17.197Z,99294.34
2023-04-10T07:29:44.080Z,99303.81
2023-04-10T07:32:11.687Z,99299.38
2023-04-10T07:34:38.660Z,99290.34
2023-04-10T07:37:05.967Z,99303.75
2023-04-10T07:39:32.868Z,99306.31
2023-04-10T07:42:00.539Z,99300.84
2023-04-10T07:44:27.680Z,99302.31
2023-04-10T07:46:56.012Z,99295.22
2023-04-10T07:49:23.521Z,99302.34
2023-04-10T07:51:50.669Z,99297.78
2023-04-10T07:54:18.560Z,99302.78
2023-04-10T07:56:45.697Z,99304.03
2023-04-10T07:59:12.851Z,99299.38
2023-04-10T08:01:40.957Z,99295.59
2023-04-10T08:04:08.598Z,99286.19
2023-04-10T08:06:35.848Z,99294.22
2023-04-10T08:09:02.820Z,99284.59
2023-04-10T08:11:32.108Z,99290.22
2023-04-10T08:14:04.079Z,99276.47
2023-04-10T08:16:33.673Z,99280.72
2023-04-10T08:19:01.553Z,99277.28
2023-04-10T08:21:32.165Z,99278.53
2023-04-10T08:24:01.760Z,99270.09
2023-04-10T08:26:29.644Z,99264.91
2023-04-10T08:28:58.310Z,99261.38
2023-04-10T08:31:27.426Z,99271.41
2023-04-10T08:33:54.709Z,99274.16
2023-04-10T08:36:22.282Z,99272.09
2023-04-10T08:38:49.255Z,99266.19
2023-04-10T08:41:18.822Z,99272.22
2023-04-10T08:43:46.558Z,99267.22
2023-04-10T08:46:15.103Z,99262.16
2023-04-10T08:49:01.429Z,99271.00
2023-04-10T08:51:41.802Z,99272.38
2023-04-10T08:54:26.112Z,99271.41
2023-04-10T08:56:55.017Z,99264.38
2023-04-10T08:59:22.366Z,99257.53
2023-04-10T09:01:49.719Z,99251.72
2023-04-10T09:04:19.942Z,99251.81
2023-04-10T09:06:47.172Z,99249.56
2023-04-10T09:09:14.093Z,99248.84
2023-04-10T09:11:53.107Z,99246.19
2023-04-10T09:14:25.696Z,99249.50
2023-04-10T09:16:53.972Z,99248.75
2023-04-10T09:19:31.430Z,99244.06
2023-04-10T09:21:58.646Z,99249.88
2023-04-10T09:24:26.322Z,99239.81
2023-04-10T09:26:53.763Z,99238.00
2023-04-10T09:29:20.883Z,99232.88
2023-04-10T09:31:48.134Z,99231.88
2023-04-10T09:34:19.130Z,99228.50
2023-04-10T09:37:01.375Z,99229.38
2023-04-10T09:39:36.324Z,99226.53
2023-04-10T09:42:03.645Z,99219.63
2023-04-10T09:44:32.864Z,99226.53
2023-04-10T09:47:18.921Z,99225.66
2023-04-10T09:49:49.404Z,99215.41
2023-04-10T09:52:22.443Z,99218.91
2023-04-10T09:54:49.341Z,99211.97
2023-04-10T09:57:21.602Z,99212.16
2023-04-10T09:59:51.690Z,99210.03
2023-04-10T10:02:20.642Z,99197.97
2023-04-10T10:04:48.532Z,99196.94
2023-04-10T10:07:17.446Z,99193.84
2023-04-10T10:09:45.899Z,99185.28
2023-04-10T10:12:16.933Z,99185.38
2023-04-10T10:15:12.430Z,99168.94
2023-04-10T10:17:46.976Z,99165.94
2023-04-10T10:20:17.968Z,99164.84
2023-04-10T10:22:46.580Z,99171.13
2023-04-10T10:25:13.844Z,99166.28
2023-04-10T10:27:42.001Z,99161.13
2023-04-10T10:30:28.255Z,99160.44
2023-04-10T10:32:57.095Z,99148.66
2023-04-10T10:35:28.737Z,99149.03
2023-04-10T10:37:59.900Z,99145.75
2023-04-10T10:40:45.064Z,99143.97
2023-04-10T10:43:22.689Z,99134.41
2023-04-10T10:46:01.929Z,99135.81
2023-04-10T10:48:29.212Z,99121.59
2023-04-10T10:50:59.138Z,99120.75
2023-04-10T10:53:40.444Z,99111.03
2023-04-10T10:56:19.271Z,99105.34
2023-04-10T10:58:48.516Z,99108.88
2023-04-10T11:01:16.349Z,99105.31
2023-04-10T11:03:47.162Z,99102.81
2023-04-10T11:06:19.739Z,99102.41
2023-04-10T11:08:53.306Z,99098.06
2023-04-10T11:11:27.496Z,99094.22
2023-04-10T11:13:57.249Z,99105.94
2023-04-10T11:16:43.804Z,99100.94
2023-04-10T11:19:20.009Z,99090.56
2023-04-10T11:22:04.331Z,99088.28
2023-04-10T11:24:57.520Z,99095.06
2023-04-10T11:27:48.638Z,99093.19
2023-04-10T11:30:48.418Z,99087.84
2023-04-10T11:33:19.285Z,99088.38
2023-04-10T11:35:46.577Z,99077.41
2023-04-10T11:38:16.108Z,99079.53
2023-04-10T11:41:04.561Z,99074.66
2023-04-10T11:43:32.408Z,99076.16
2023-04-10T11:46:08.752Z,99071.28
2023-04-10T11:48:37.724Z,99075.03
2023-04-10T11:51:13.232Z,99063.56
2023-04-10T11:53:41.273Z,99064.16
2023-04-10T11:56:22.166Z,99076.59
2023-04-10T11:58:54.751Z,99067.31
2023-04-10T12:01:23.452Z,99070.66
2023-04-10T12:03:50.994Z,99060.47
2023-04-10T12:06:19.773Z,99056.19
2023-04-10T12:08:49.429Z,99058.09
2023-04-10T12:11:24.800Z,99056.59
2023-04-10T12:13:54.032Z,99061.31
2023-04-10T12:16:22.331Z,99065.03
2023-04-10T12:18:50.522Z,99055.09
2023-04-10T12:21:17.904Z,99056.91
2023-04-10T12:23:44.723Z,99054.63
2023-04-10T12:26:13.560Z,99050.88
2023-04-10T12:28:42.856Z,99049.28
2023-04-10T12:31:10.215Z,99050.34
2023-04-10T12:33:37.327Z,99058.97
2023-04-10T12:36:04.791Z,99049.25
2023-04-10T12:38:45.116Z,99039.75
2023-04-10T12:41:12.752Z,99046.03
2023-04-10T12:43:41.315Z,99060.06
2023-04-10T12:46:09.771Z,99045.63
2023-04-10T12:48:37.157Z,99057.75
2023-04-10T12:51:04.508Z,99059.34
2023-04-10T12:53:31.959Z,99058.31
2023-04-10T12:56:05.184Z,99050.84
2023-04-10T12:58:33.392Z,99059.28
2023-04-10T13:01:06.243Z,99050.78
2023-04-10T13:03:39.320Z,99051.38
2023-04-10T13:06:08.579Z,99051.44
2023-04-10T13:08:36.001Z,99050.50
2023-04-10T13:11:03.783Z,99041.00
2023-04-10T13:13:33.760Z,99040.56
2023-04-10T13:16:01.450Z,99048.09
2023-04-10T13:18:28.474Z,99033.38
2023-04-10T13:20:56.090Z,99031.88
2023-04-10T13:23:23.063Z,99031.31
2023-04-10T13:25:51.169Z,99051.16
2023-04-10T13:28:19.008Z,99045.44
2023-04-10T13:30:46.198Z,99069.44
2023-04-10T13:33:13.250Z,99045.50
2023-04-10T13:35:41.717Z,99034.94
2023-04-10T13:38:09.601Z,99050.16
2023-04-10T13:40:37.392Z,99038.91
2023-04-10T13:43:06.512Z,99039.28
2023-04-10T13:45:34.961Z,99025.50
2023-04-10T13:48:02.112Z,99023.31
2023-04-10T13:50:29.550Z,99026.78
2023-04-10T13:52:56.388Z,99027.81
2023-04-10T13:55:23.584Z,99024.03
2023-04-10T13:57:50.923Z,99020.44
2023-04-10T14:00:18.457Z,99021.31
2023-04-10T14:02:45.917Z,99017.72
2023-04-10T14:05:13.237Z,99023.34
2023-04-10T14:07:40.118Z,99032.84
2023-04-10T14:10:08.082Z,99021.63
2023-04-10T14:12:36.219Z,99034.94
2023-04-10T14:15:05.337Z,99035.94
2023-04-10T14:17:32.237Z,99031.06
2023-04-10T14:19:59.463Z,99034.47
2023-04-10T14:22:26.453Z,99039.09
2023-04-10T14:25:05.287Z,99037.13
2023-04-10T14:27:39.076Z,99020.56
2023-04-10T14:30:06.977Z,99027.69
2023-04-10T14:32:33.929Z,99015.75
2023-04-10T14:35:01.116Z,99024.22
2023-04-10T14:37:28.177Z,99013.41
2023-04-10T14:39:55.922Z,99032.00
2023-04-10T14:42:23.795Z,99020.44
2023-04-10T14:44:51.002Z,99020.63
2023-04-10T14:47:18.635Z,99011.84
2023-04-10T14:49:45.898Z,99018.69
2023-04-10T14:52:12.732Z,99019.72
2023-04-10T14:54:39.908Z,99023.59
2023-04-10T14:57:07.659Z,99023.97
2023-04-10T14:59:34.804Z,99016.00
2023-04-10T15:02:01.656Z,99017.78
2023-04-10T15:04:29.039Z,99020.84
2023-04-10T15:06:56.009Z,99019.31
2023-04-10T15:09:23.204Z,99017.50
2023-04-10T15:11:50.147Z,99021.75
2023-04-10T15:14:17.236Z,99019.22
2023-04-10T15:16:44.155Z,99015.69
2023-04-10T15:19:11.360Z,99014.84
2023-04-10T15:21:38.285Z,99022.59
2023-04-10T15:24:05.808Z,99019.78
2023-04-10T15:26:32.763Z,99017.91
2023-04-10T15:28:59.999Z,99024.81
2023-04-10T15:31:26.923Z,99028.69
2023-04-10T15:33:54.389Z,99037.03
2023-04-10T15:36:21.558Z,99042.97
2023-04-10T15:38:50.184Z,99042.78
2023-04-10T15:41:17.353Z,99043.78
2023-04-10T15:43:44.547Z,99048.84
2023-04-10T15:46:11.572Z,99048.59
2023-04-10T15:48:38.740Z,99045.44
2023-04-10T15:51:06.742Z,99053.72
2023-04-10T15:53:34.895Z,99048.75
2023-04-10T15:56:04.738Z,99040.34
2023-04-10T15:58:32.691Z,99044.03
2023-04-10T16:00:59.981Z,99032.78
2023-04-10T16:03:29.931Z,99032.00
2023-04-10T16:05:58.448Z,99031.22
2023-04-10T16:08:26.527Z,99030.53
2023-04-10T16:10:54.127Z,99031.63
2023-04-10T16:13:21.322Z,99029.09
2023-04-10T16:15:49.709Z,99027.34
2023-04-10T16:18:17.054Z,99027.63
2023-04-10T16:20:43.986Z,99022.25
2023-04-10T16:23:11.147Z,99028.38
2023-04-10T16:25:38.068Z,99021.47
2023-04-10T16:28:08.055Z,99017.28
2023-04-10T16:30:35.959Z,99027.19
2023-04-10T16:33:04.218Z,99020.44
2023-04-10T16:35:31.523Z,99023.25
2023-04-10T16:37:58.835Z,99009.75
2023-04-10T16:40:32.586Z,99010.38
2023-04-10T16:43:01.992Z,99012.47
2023-04-10T16:45:29.119Z,99018.31
2023-04-10T16:47:56.503Z,99013.59
2023-04-10T16:50:23.478Z,99001.84
2023-04-10T16:52:50.697Z,99012.91
2023-04-10T16:55:17.796Z,99015.19
2023-04-10T16:57:45.896Z,99015.78
2023-04-10T17:00:13.253Z,99021.63
2023-04-10T17:02:40.418Z,99015.78
2023-04-10T17:05:07.407Z,99018.78
2023-04-10T17:07:34.686Z,99006.81
2023-04-10T17:10:01.636Z,99016.91
2023-04-10T17:12:28.890Z,99018.13
2023-04-10T17:14:55.916Z,99021.22
2023-04-10T17:17:23.188Z,99022.59
2023-04-10T17:19:50.148Z,99014.28
2023-04-10T17:22:17.544Z,99021.91
2023-04-10T17:24:45.362Z,99018.06
2023-04-10T17:27:14.459Z,99022.09
2023-04-10T17:29:41.407Z,99028.84
2023-04-10T17:32:09.434Z,99017.88
2023-04-10T17:34:36.313Z,99024.56
2023-04-10T17:37:03.546Z,99016.16
2023-04-10T17:39:30.448Z,99021.00
2023-04-10T17:41:57.739Z,99031.94
2023-04-10T17:44:24.745Z,99023.56
2023-04-10T17:46:53.720Z,99024.69
2023-04-10T17:49:22.096Z,99018.88
2023-04-10T17:51:49.864Z,99016.50
2023-04-10T17:54:16.798Z,99021.78
2023-04-10T17:56:44.149Z,99011.25
2023-04-10T17:59:11.046Z,99004.25
2023-04-10T18:01:38.402Z,99002.78
2023-04-10T18:04:05.906Z,98997.91
2023-04-10T18:06:33.147Z,99003.47
2023-04-10T18:09:00.131Z,98998.78
2023-04-10T18:11:27.312Z,99003.56
2023-04-10T18:13:54.267Z,99008.34
2023-04-10T18:16:21.508Z,99013.88
2023-04-10T18:18:48.415Z,99007.25
2023-04-10T18:21:15.523Z,99004.91
2023-04-10T18:23:44.503Z,99007.00
2023-04-10T18:26:11.922Z,99015.38
2023-04-10T18:28:39.580Z,99012.06
2023-04-10T18:31:08.507Z,99012.38
2023-04-10T18:33:35.594Z,99007.44
2023-04-10T18:36:03.611Z,99008.50
2023-04-10T18:38:30.910Z,99016.56
2023-04-10T18:40:58.276Z,99015.00
2023-04-10T18:43:27.461Z,99017.91
2023-04-10T18:45:55.219Z,99017.22
2023-04-10T18:48:22.562Z,99025.38
2023-04-10T18:50:53.442Z,99023.88
2023-04-10T18:53:21.257Z,99025.81
2023-04-10T18:55:50.625Z,99032.03
2023-04-10T18:58:17.954Z,99025.19
2023-04-10T19:00:45.397Z,99030.63
2023-04-10T19:03:13.076Z,99027.28
2023-04-10T19:05:41.954Z,99029.25
2023-04-10T19:08:09.494Z,99026.88
2023-04-10T19:10:37.640Z,99034.88
2023-04-10T19:13:04.478Z,99037.53
2023-04-10T19:15:31.623Z,99036.72
2023-04-10T19:17:58.596Z,99041.28
2023-04-10T19:20:50.810Z,99041.38
2023-04-10T19:23:13.134Z,99040.56
2023-04-10T19:25:41.016Z,99046.66
2023-04-10T19:28:07.935Z,99039.72
2023-04-10T19:30:35.323Z,99035.44
2023-04-10T19:33:02.264Z,99043.34
2023-04-10T19:35:29.543Z,99038.97
2023-04-10T19:37:57.617Z,99039.94
2023-04-10T19:40:24.866Z,99037.47
2023-04-10T19:42:51.818Z,99036.66
2023-04-10T19:45:19.040Z,99037.66
2023-04-10T19:47:45.904Z,99036.91
2023-04-10T19:50:13.178Z,99041.38
2023-04-10T19:52:40.051Z,99038.00
2023-04-10T19:55:07.865Z,99030.28
2023-04-10T19:57:35.077Z,99029.63
2023-04-10T20:00:02.338Z,99034.19
2023-04-10T20:02:29.470Z,99022.13
2023-04-10T20:04:56.776Z,99028.59
2023-04-10T20:07:24.425Z,99020.84
2023-04-10T20:09:51.565Z,99019.25
2023-04-10T20:12:18.376Z,99011.53
2023-04-10T20:14:45.516Z,99017.00
2023-04-10T20:17:12.544Z,99019.81
2023-04-10T20:19:40.052Z,99020.84
2023-04-10T20:22:07.923Z,99021.00
2023-04-10T20:24:35.202Z,99017.59
2023-04-10T20:27:02.563Z,99022.09
2023-04-10T20:29:29.892Z,99020.50
2023-04-10T20:31:56.886Z,99018.91
2023-04-10T20:34:24.077Z,99014.78
2023-04-10T20:36:50.961Z,99010.66
2023-04-10T20:39:18.363Z,99014.31
2023-04-10T20:41:45.252Z,99017.81
2023-04-10T20:44:12.504Z,99015.31
2023-04-10T20:46:40.405Z,99007.72
2023-04-10T20:49:07.670Z,99003.53
2023-04-10T20:51:37.216Z,99005.50
2023-04-10T20:54:06.493Z,99005.63
2023-04-10T20:56:42.882Z,99002.25
2023-04-10T20:59:11.593Z,99004.13
2023-04-10T21:01:38.768Z,99002.59
2023-04-10T21:04:06.323Z,99003.69
2023-04-10T21:06:33.743Z,99008.09
2023-04-10T21:09:01.017Z,99006.47
2023-04-10T21:11:28.001Z,99015.28
2023-04-10T21:13:55.238Z,99014.53
2023-04-10T21:16:22.150Z,99011.16
2023-04-10T21:18:49.345Z,99012.09
2023-04-10T21:21:16.615Z,99001.75
2023-04-10T21:23:43.778Z,98997.59
2023-04-10T21:26:10.776Z,98997.72
2023-04-10T21:28:37.920Z,98995.22
2023-04-10T21:31:05.134Z,99001.41
2023-04-10T21:33:32.945Z,99002.22
2023-04-10T21:35:59.955Z,98994.41
2023-04-10T21:38:27.305Z,98991.88
2023-04-10T21:40:54.645Z,98993.66
2023-04-10T21:43:22.378Z,98998.06
2023-04-10T21:45:49.529Z,98989.34
2023-04-10T21:48:16.867Z,98993.63
2023-04-10T21:50:43.800Z,98991.88
2023-04-10T21:53:11.101Z,98992.81
2023-04-10T21:55:38.198Z,98988.63
2023-04-10T21:58:05.860Z,98982.66
2023-04-10T22:00:33.583Z,98980.06
2023-04-10T22:03:00.937Z,98985.22
2023-04-10T22:05:28.058Z,98974.66
2023-04-10T22:07:55.272Z,98974.66
2023-04-10T22:10:22.841Z,98965.13
2023-04-10T22:12:49.924Z,98965.13
2023-04-10T22:15:17.214Z,98966.06
2023-04-10T22:17:44.540Z,98962.63
2023-04-10T22:20:11.464Z,98960.97
2023-04-10T22:22:38.620Z,98960.13
2023-04-10T22:25:06.105Z,98957.56
2023-04-10T22:27:33.474Z,98955.09
2023-04-10T22:30:03.743Z,98947.28
2023-04-10T22:32:32.266Z,98943.09
2023-04-10T22:34:59.967Z,98949.34
2023-04-10T22:37:27.770Z,98931.19
2023-04-10T22:39:56.390Z,98931.34
2023-04-10T22:42:24.128Z,98937.53
2023-04-10T22:44:51.135Z,98928.94
2023-04-10T22:47:18.486Z,98927.31
2023-04-10T22:49:45.470Z,98935.25
2023-04-10T22:52:13.267Z,98936.22
2023-04-10T22:54:40.130Z,98931.88
2023-04-10T22:57:07.733Z,98929.31
2023-04-10T22:59:38.040Z,98927.59
2023-04-10T23:02:05.717Z,98917.25
2023-04-10T23:04:32.781Z,98917.34
2023-04-10T23:06:59.983Z,98908.66
2023-04-10T23:09:26.900Z,98910.31
2023-04-10T23:11:54.122Z,98905.91
2023-04-10T23:14:21.009Z,98906.72
2023-04-10T23:16:49.586Z,98901.59
2023-04-10T23:19:19.121Z,98905.97
2023-04-10T23:21:46.282Z,98898.25
2023-04-10T23:24:13.213Z,98887.97
2023-04-10T23:26:40.404Z,98895.81
2023-04-10T23:29:07.223Z,98900.22
2023-04-10T23:31:34.400Z,98901.22
2023-04-10T23:34:01.293Z,98899.63
2023-04-10T23:36:28.500Z,98902.22
2023-04-10T23:38:55.679Z,98897.03
2023-04-10T23:41:22.935Z,98897.09
2023-04-10T23:43:49.752Z,98897.09
2023-04-10T23:46:17.100Z,98892.75
2023-04-10T23:48:43.958Z,98888.56
2023-04-10T23:51:11.132Z,98887.69
2023-04-10T23:53:38.028Z,98887.78
2023-04-10T23:56:07.946Z,98891.25
2023-04-10T23:58:34.872Z,98874.81
